sensor_id;sensor_type;location;lat;lon;timestamp;P1;durP1;ratioP1;P2;durP2;ratioP2
54157;SDS011;40065;49.894;10.358;2022-10-17T00:04:14;2.25;;;1.48;;
54157;SDS011;40065;49.894;10.358;2022-10-17T00:09:16;2.72;;;1.77;;
54157;SDS011;40065;49.894;10.358;2022-10-17T00:14:18;2.85;;;2.00;;
54157;SDS011;40065;49.894;10.358;2022-10-17T00:19:20;2.45;;;1.70;;
54157;SDS011;40065;49.894;10.358;2022-10-17T00:24:21;3.05;;;1.70;;
54157;SDS011;40065;49.894;10.358;2022-10-17T00:29:23;2.20;;;1.50;;
54157;SDS011;40065;49.894;10.358;2022-10-17T00:34:27;3.17;;;1.75;;
54157;SDS011;40065;49.894;10.358;2022-10-17T00:39:30;2.40;;;1.70;;
54157;SDS011;40065;49.894;10.358;2022-10-17T00:49:34;3.35;;;2.10;;
54157;SDS011;40065;49.894;10.358;2022-10-17T00:54:40;3.13;;;1.90;;
54157;SDS011;40065;49.894;10.358;2022-10-17T00:59:46;3.13;;;2.40;;
54157;SDS011;40065;49.894;10.358;2022-10-17T01:04:52;3.30;;;2.42;;
54157;SDS011;40065;49.894;10.358;2022-10-17T01:09:56;2.90;;;2.22;;
54157;SDS011;40065;49.894;10.358;2022-10-17T01:31:11;3.17;;;2.30;;
54157;SDS011;40065;49.894;10.358;2022-10-17T01:47:12;3.50;;;2.35;;
54157;SDS011;40065;49.894;10.358;2022-10-17T01:52:20;2.67;;;2.03;;
54157;SDS011;40065;49.894;10.358;2022-10-17T01:57:31;3.03;;;2.15;;
54157;SDS011;40065;49.894;10.358;2022-10-17T02:02:38;2.92;;;2.20;;
54157;SDS011;40065;49.894;10.358;2022-10-17T02:07:41;4.72;;;2.35;;
54157;SDS011;40065;49.894;10.358;2022-10-17T02:23:14;6.25;;;2.45;;
54157;SDS011;40065;49.894;10.358;2022-10-17T02:38:53;4.57;;;2.63;;
54157;SDS011;40065;49.894;10.358;2022-10-17T02:43:56;3.55;;;2.15;;
54157;SDS011;40065;49.894;10.358;2022-10-17T02:49:07;3.67;;;2.20;;
54157;SDS011;40065;49.894;10.358;2022-10-17T02:54:23;4.35;;;2.47;;
54157;SDS011;40065;49.894;10.358;2022-10-17T02:59:32;3.38;;;1.83;;
54157;SDS011;40065;49.894;10.358;2022-10-17T03:04:36;3.15;;;1.80;;
54157;SDS011;40065;49.894;10.358;2022-10-17T03:09:38;3.78;;;2.10;;
54157;SDS011;40065;49.894;10.358;2022-10-17T03:14:40;2.55;;;2.17;;
54157;SDS011;40065;49.894;10.358;2022-10-17T03:19:42;3.10;;;2.17;;
54157;SDS011;40065;49.894;10.358;2022-10-17T03:24:44;4.85;;;3.35;;
54157;SDS011;40065;49.894;10.358;2022-10-17T03:29:46;3.67;;;2.22;;
54157;SDS011;40065;49.894;10.358;2022-10-17T03:34:49;4.45;;;2.78;;
54157;SDS011;40065;49.894;10.358;2022-10-17T03:39:51;2.42;;;1.83;;
54157;SDS011;40065;49.894;10.358;2022-10-17T03:44:53;7.38;;;3.22;;
54157;SDS011;40065;49.894;10.358;2022-10-17T03:49:56;2.90;;;2.05;;
54157;SDS011;40065;49.894;10.358;2022-10-17T03:54:58;4.35;;;2.25;;
54157;SDS011;40065;49.894;10.358;2022-10-17T04:00:00;3.60;;;2.80;;
54157;SDS011;40065;49.894;10.358;2022-10-17T04:05:02;3.45;;;2.53;;
54157;SDS011;40065;49.894;10.358;2022-10-17T04:10:04;3.47;;;2.78;;
54157;SDS011;40065;49.894;10.358;2022-10-17T04:15:06;8.52;;;3.92;;
54157;SDS011;40065;49.894;10.358;2022-10-17T04:20:10;4.30;;;3.20;;
54157;SDS011;40065;49.894;10.358;2022-10-17T04:25:12;4.32;;;2.95;;
54157;SDS011;40065;49.894;10.358;2022-10-17T04:30:17;4.90;;;3.10;;
54157;SDS011;40065;49.894;10.358;2022-10-17T04:35:19;4.20;;;3.00;;
54157;SDS011;40065;49.894;10.358;2022-10-17T04:40:27;4.40;;;3.00;;
54157;SDS011;40065;49.894;10.358;2022-10-17T04:45:29;5.15;;;3.33;;
54157;SDS011;40065;49.894;10.358;2022-10-17T04:50:35;7.18;;;3.67;;
54157;SDS011;40065;49.894;10.358;2022-10-17T04:55:58;7.57;;;4.70;;
54157;SDS011;40065;49.894;10.358;2022-10-17T05:01:06;6.53;;;4.20;;
54157;SDS011;40065;49.894;10.358;2022-10-17T05:06:15;6.63;;;4.25;;
54157;SDS011;40065;49.894;10.358;2022-10-17T05:11:36;5.00;;;3.45;;
54157;SDS011;40065;49.894;10.358;2022-10-17T05:16:38;5.43;;;3.58;;
54157;SDS011;40065;49.894;10.358;2022-10-17T05:21:41;4.70;;;3.30;;
54157;SDS011;40065;49.894;10.358;2022-10-17T05:26:42;5.68;;;3.58;;
54157;SDS011;40065;49.894;10.358;2022-10-17T05:31:45;5.28;;;3.95;;
54157;SDS011;40065;49.894;10.358;2022-10-17T05:36:47;7.43;;;5.50;;
54157;SDS011;40065;49.894;10.358;2022-10-17T05:41:52;6.55;;;4.57;;
54157;SDS011;40065;49.894;10.358;2022-10-17T05:46:54;5.80;;;4.63;;
54157;SDS011;40065;49.894;10.358;2022-10-17T05:51:56;6.53;;;4.00;;
54157;SDS011;40065;49.894;10.358;2022-10-17T05:56:59;4.35;;;3.30;;
54157;SDS011;40065;49.894;10.358;2022-10-17T06:02:04;4.40;;;3.20;;
54157;SDS011;40065;49.894;10.358;2022-10-17T06:07:07;6.45;;;3.35;;
54157;SDS011;40065;49.894;10.358;2022-10-17T06:12:09;4.13;;;2.80;;
54157;SDS011;40065;49.894;10.358;2022-10-17T06:17:10;4.55;;;2.92;;
54157;SDS011;40065;49.894;10.358;2022-10-17T06:22:17;3.75;;;3.20;;
54157;SDS011;40065;49.894;10.358;2022-10-17T06:27:20;4.35;;;3.63;;
54157;SDS011;40065;49.894;10.358;2022-10-17T06:32:21;4.57;;;3.00;;
54157;SDS011;40065;49.894;10.358;2022-10-17T06:37:24;4.25;;;3.25;;
54157;SDS011;40065;49.894;10.358;2022-10-17T06:42:26;8.02;;;3.50;;
54157;SDS011;40065;49.894;10.358;2022-10-17T06:47:48;3.95;;;2.90;;
54157;SDS011;40065;49.894;10.358;2022-10-17T06:53:19;6.05;;;3.10;;
54157;SDS011;40065;49.894;10.358;2022-10-17T06:58:43;2.83;;;2.00;;
54157;SDS011;40065;49.894;10.358;2022-10-17T07:04:16;2.50;;;1.80;;
54157;SDS011;40065;49.894;10.358;2022-10-17T07:09:18;4.65;;;1.75;;
54157;SDS011;40065;49.894;10.358;2022-10-17T07:14:20;3.13;;;2.13;;
54157;SDS011;40065;49.894;10.358;2022-10-17T07:19:22;7.28;;;4.72;;
54157;SDS011;40065;49.894;10.358;2022-10-17T07:24:24;7.80;;;3.90;;
54157;SDS011;40065;49.894;10.358;2022-10-17T07:29:31;5.97;;;4.15;;
54157;SDS011;40065;49.894;10.358;2022-10-17T07:34:40;4.38;;;3.58;;
54157;SDS011;40065;49.894;10.358;2022-10-17T07:39:43;5.63;;;2.72;;
54157;SDS011;40065;49.894;10.358;2022-10-17T07:44:45;4.22;;;1.58;;
54157;SDS011;40065;49.894;10.358;2022-10-17T07:49:48;2.78;;;1.40;;
54157;SDS011;40065;49.894;10.358;2022-10-17T07:54:49;3.00;;;1.40;;
54157;SDS011;40065;49.894;10.358;2022-10-17T07:59:51;3.22;;;1.35;;
54157;SDS011;40065;49.894;10.358;2022-10-17T08:04:54;4.78;;;1.45;;
54157;SDS011;40065;49.894;10.358;2022-10-17T08:09:56;3.22;;;1.25;;
54157;SDS011;40065;49.894;10.358;2022-10-17T08:14:58;2.40;;;1.30;;
54157;SDS011;40065;49.894;10.358;2022-10-17T08:20:03;2.33;;;1.00;;
54157;SDS011;40065;49.894;10.358;2022-10-17T08:25:06;2.47;;;0.98;;
54157;SDS011;40065;49.894;10.358;2022-10-17T08:35:11;3.30;;;1.37;;
54157;SDS011;40065;49.894;10.358;2022-10-17T08:40:16;1.95;;;1.45;;
54157;SDS011;40065;49.894;10.358;2022-10-17T08:50:43;3.25;;;1.25;;
54157;SDS011;40065;49.894;10.358;2022-10-17T08:55:46;4.07;;;1.08;;
54157;SDS011;40065;49.894;10.358;2022-10-17T09:06:08;4.32;;;1.08;;
54157;SDS011;40065;49.894;10.358;2022-10-17T09:11:23;2.28;;;1.15;;
54157;SDS011;40065;49.894;10.358;2022-10-17T09:22:00;4.88;;;1.55;;
54157;SDS011;40065;49.894;10.358;2022-10-17T09:27:04;4.53;;;1.60;;
54157;SDS011;40065;49.894;10.358;2022-10-17T09:32:16;3.63;;;1.45;;
54157;SDS011;40065;49.894;10.358;2022-10-17T09:37:21;3.97;;;1.60;;
54157;SDS011;40065;49.894;10.358;2022-10-17T09:42:29;3.30;;;1.23;;
54157;SDS011;40065;49.894;10.358;2022-10-17T09:52:46;5.47;;;1.20;;
54157;SDS011;40065;49.894;10.358;2022-10-17T09:57:52;3.60;;;1.25;;
54157;SDS011;40065;49.894;10.358;2022-10-17T10:03:07;3.60;;;1.20;;
54157;SDS011;40065;49.894;10.358;2022-10-17T10:08:13;2.17;;;1.30;;
54157;SDS011;40065;49.894;10.358;2022-10-17T10:13:18;4.05;;;1.23;;
54157;SDS011;40065;49.894;10.358;2022-10-17T10:23:35;3.33;;;1.30;;
54157;SDS011;40065;49.894;10.358;2022-10-17T10:28:47;4.00;;;1.20;;
54157;SDS011;40065;49.894;10.358;2022-10-17T10:33:56;5.60;;;1.55;;
54157;SDS011;40065;49.894;10.358;2022-10-17T10:39:13;2.47;;;1.30;;
54157;SDS011;40065;49.894;10.358;2022-10-17T10:44:40;2.85;;;1.30;;
54157;SDS011;40065;49.894;10.358;2022-10-17T10:49:43;4.93;;;1.20;;
54157;SDS011;40065;49.894;10.358;2022-10-17T10:54:49;4.68;;;1.77;;
54157;SDS011;40065;49.894;10.358;2022-10-17T11:00:03;3.75;;;1.23;;
54157;SDS011;40065;49.894;10.358;2022-10-17T11:10:51;2.67;;;1.20;;
54157;SDS011;40065;49.894;10.358;2022-10-17T11:15:58;4.18;;;1.20;;
54157;SDS011;40065;49.894;10.358;2022-10-17T11:21:20;2.60;;;1.40;;
54157;SDS011;40065;49.894;10.358;2022-10-17T11:26:30;2.75;;;1.10;;
54157;SDS011;40065;49.894;10.358;2022-10-17T11:31:36;3.00;;;1.23;;
54157;SDS011;40065;49.894;10.358;2022-10-17T11:36:41;3.47;;;1.20;;
54157;SDS011;40065;49.894;10.358;2022-10-17T11:41:47;3.75;;;1.58;;
54157;SDS011;40065;49.894;10.358;2022-10-17T11:52:45;3.80;;;1.50;;
54157;SDS011;40065;49.894;10.358;2022-10-17T11:58:08;2.28;;;1.30;;
54157;SDS011;40065;49.894;10.358;2022-10-17T12:03:45;5.93;;;1.63;;
54157;SDS011;40065;49.894;10.358;2022-10-17T12:19:46;3.67;;;1.30;;
54157;SDS011;40065;49.894;10.358;2022-10-17T12:24:56;2.53;;;1.23;;
54157;SDS011;40065;49.894;10.358;2022-10-17T12:30:21;7.38;;;2.08;;
54157;SDS011;40065;49.894;10.358;2022-10-17T12:35:26;5.85;;;1.35;;
54157;SDS011;40065;49.894;10.358;2022-10-17T12:45:52;5.82;;;1.23;;
54157;SDS011;40065;49.894;10.358;2022-10-17T12:56:43;1.75;;;1.10;;
54157;SDS011;40065;49.894;10.358;2022-10-17T13:01:48;1.55;;;1.10;;
54157;SDS011;40065;49.894;10.358;2022-10-17T13:06:54;4.30;;;1.80;;
54157;SDS011;40065;49.894;10.358;2022-10-17T13:11:59;1.92;;;1.20;;
54157;SDS011;40065;49.894;10.358;2022-10-17T13:17:05;11.13;;;1.73;;
54157;SDS011;40065;49.894;10.358;2022-10-17T13:22:16;5.00;;;2.05;;
54157;SDS011;40065;49.894;10.358;2022-10-17T13:27:28;7.45;;;1.60;;
54157;SDS011;40065;49.894;10.358;2022-10-17T13:32:36;4.95;;;1.30;;
54157;SDS011;40065;49.894;10.358;2022-10-17T13:37:42;3.33;;;1.23;;
54157;SDS011;40065;49.894;10.358;2022-10-17T13:42:54;3.65;;;1.40;;
54157;SDS011;40065;49.894;10.358;2022-10-17T13:48:03;5.68;;;1.50;;
54157;SDS011;40065;49.894;10.358;2022-10-17T13:58:39;3.60;;;1.40;;
54157;SDS011;40065;49.894;10.358;2022-10-17T14:03:49;2.75;;;1.20;;
54157;SDS011;40065;49.894;10.358;2022-10-17T14:09:16;3.58;;;1.17;;
54157;SDS011;40065;49.894;10.358;2022-10-17T14:14:25;9.07;;;1.50;;
54157;SDS011;40065;49.894;10.358;2022-10-17T14:19:31;2.10;;;0.90;;
54157;SDS011;40065;49.894;10.358;2022-10-17T14:24:35;2.95;;;1.27;;
54157;SDS011;40065;49.894;10.358;2022-10-17T14:29:50;3.45;;;1.35;;
54157;SDS011;40065;49.894;10.358;2022-10-17T14:34:53;3.17;;;1.40;;
54157;SDS011;40065;49.894;10.358;2022-10-17T14:40:17;8.38;;;1.30;;
54157;SDS011;40065;49.894;10.358;2022-10-17T14:45:28;1.65;;;1.00;;
54157;SDS011;40065;49.894;10.358;2022-10-17T14:50:31;4.78;;;1.17;;
54157;SDS011;40065;49.894;10.358;2022-10-17T14:55:34;5.72;;;1.35;;
54157;SDS011;40065;49.894;10.358;2022-10-17T15:00:37;5.97;;;1.33;;
54157;SDS011;40065;49.894;10.358;2022-10-17T15:05:38;4.93;;;1.40;;
54157;SDS011;40065;49.894;10.358;2022-10-17T15:10:40;4.22;;;1.10;;
54157;SDS011;40065;49.894;10.358;2022-10-17T15:15:43;2.38;;;1.10;;
54157;SDS011;40065;49.894;10.358;2022-10-17T15:20:46;2.23;;;1.00;;
54157;SDS011;40065;49.894;10.358;2022-10-17T15:26:00;8.50;;;1.30;;
54157;SDS011;40065;49.894;10.358;2022-10-17T15:31:02;4.43;;;1.35;;
54157;SDS011;40065;49.894;10.358;2022-10-17T15:36:03;3.85;;;1.05;;
54157;SDS011;40065;49.894;10.358;2022-10-17T15:41:07;3.70;;;1.15;;
54157;SDS011;40065;49.894;10.358;2022-10-17T15:46:12;4.03;;;1.23;;
54157;SDS011;40065;49.894;10.358;2022-10-17T15:51:18;2.45;;;1.38;;
54157;SDS011;40065;49.894;10.358;2022-10-17T15:56:22;1.80;;;1.10;;
54157;SDS011;40065;49.894;10.358;2022-10-17T16:01:32;4.00;;;1.33;;
54157;SDS011;40065;49.894;10.358;2022-10-17T16:06:34;3.50;;;1.27;;
54157;SDS011;40065;49.894;10.358;2022-10-17T16:11:37;3.88;;;1.40;;
54157;SDS011;40065;49.894;10.358;2022-10-17T16:16:41;6.65;;;1.40;;
54157;SDS011;40065;49.894;10.358;2022-10-17T16:21:43;3.45;;;1.35;;
54157;SDS011;40065;49.894;10.358;2022-10-17T16:26:45;3.00;;;1.63;;
54157;SDS011;40065;49.894;10.358;2022-10-17T16:31:47;6.85;;;1.48;;
54157;SDS011;40065;49.894;10.358;2022-10-17T16:36:48;4.85;;;1.85;;
54157;SDS011;40065;49.894;10.358;2022-10-17T16:41:50;5.03;;;1.73;;
54157;SDS011;40065;49.894;10.358;2022-10-17T16:46:57;7.65;;;1.70;;
54157;SDS011;40065;49.894;10.358;2022-10-17T16:51:59;7.15;;;1.92;;
54157;SDS011;40065;49.894;10.358;2022-10-17T16:57:01;5.10;;;1.83;;
54157;SDS011;40065;49.894;10.358;2022-10-17T17:02:04;3.50;;;1.73;;
54157;SDS011;40065;49.894;10.358;2022-10-17T17:07:06;5.65;;;1.80;;
54157;SDS011;40065;49.894;10.358;2022-10-17T17:12:08;4.25;;;2.15;;
54157;SDS011;40065;49.894;10.358;2022-10-17T17:17:10;3.30;;;1.77;;
54157;SDS011;40065;49.894;10.358;2022-10-17T17:22:30;2.53;;;1.70;;
54157;SDS011;40065;49.894;10.358;2022-10-17T17:27:32;5.90;;;1.77;;
54157;SDS011;40065;49.894;10.358;2022-10-17T17:32:34;3.38;;;1.63;;
54157;SDS011;40065;49.894;10.358;2022-10-17T17:37:36;5.50;;;1.90;;
54157;SDS011;40065;49.894;10.358;2022-10-17T17:42:38;3.15;;;1.77;;
54157;SDS011;40065;49.894;10.358;2022-10-17T17:47:39;4.00;;;1.90;;
54157;SDS011;40065;49.894;10.358;2022-10-17T17:52:41;4.30;;;2.25;;
54157;SDS011;40065;49.894;10.358;2022-10-17T17:57:45;3.95;;;1.90;;
54157;SDS011;40065;49.894;10.358;2022-10-17T18:02:47;6.15;;;2.50;;
54157;SDS011;40065;49.894;10.358;2022-10-17T18:07:49;9.93;;;3.28;;
54157;SDS011;40065;49.894;10.358;2022-10-17T18:12:51;6.70;;;2.30;;
54157;SDS011;40065;49.894;10.358;2022-10-17T18:17:52;5.03;;;2.55;;
54157;SDS011;40065;49.894;10.358;2022-10-17T18:22:54;3.20;;;2.42;;
54157;SDS011;40065;49.894;10.358;2022-10-17T18:28:02;10.23;;;2.53;;
54157;SDS011;40065;49.894;10.358;2022-10-17T18:33:04;4.78;;;2.13;;
54157;SDS011;40065;49.894;10.358;2022-10-17T18:38:06;6.05;;;2.40;;
54157;SDS011;40065;49.894;10.358;2022-10-17T18:43:08;2.75;;;2.00;;
54157;SDS011;40065;49.894;10.358;2022-10-17T18:48:10;4.72;;;2.03;;
54157;SDS011;40065;49.894;10.358;2022-10-17T18:53:12;4.57;;;2.28;;
54157;SDS011;40065;49.894;10.358;2022-10-17T18:58:13;4.07;;;2.22;;
54157;SDS011;40065;49.894;10.358;2022-10-17T19:03:15;4.85;;;2.20;;
54157;SDS011;40065;49.894;10.358;2022-10-17T19:08:18;4.17;;;2.20;;
54157;SDS011;40065;49.894;10.358;2022-10-17T19:13:20;3.55;;;2.42;;
54157;SDS011;40065;49.894;10.358;2022-10-17T19:18:25;3.70;;;2.03;;
54157;SDS011;40065;49.894;10.358;2022-10-17T19:23:26;3.90;;;2.33;;
54157;SDS011;40065;49.894;10.358;2022-10-17T19:28:30;5.22;;;3.00;;
54157;SDS011;40065;49.894;10.358;2022-10-17T19:33:33;7.18;;;3.10;;
54157;SDS011;40065;49.894;10.358;2022-10-17T19:38:35;5.18;;;2.20;;
54157;SDS011;40065;49.894;10.358;2022-10-17T19:43:38;3.65;;;2.00;;
54157;SDS011;40065;49.894;10.358;2022-10-17T19:48:41;4.15;;;2.30;;
54157;SDS011;40065;49.894;10.358;2022-10-17T19:53:44;7.20;;;3.20;;
54157;SDS011;40065;49.894;10.358;2022-10-17T19:58:47;4.57;;;2.47;;
54157;SDS011;40065;49.894;10.358;2022-10-17T20:03:50;3.28;;;2.08;;
54157;SDS011;40065;49.894;10.358;2022-10-17T20:08:52;6.32;;;2.58;;
54157;SDS011;40065;49.894;10.358;2022-10-17T20:13:54;4.55;;;2.40;;
54157;SDS011;40065;49.894;10.358;2022-10-17T20:19:01;6.47;;;2.53;;
54157;SDS011;40065;49.894;10.358;2022-10-17T20:24:10;5.72;;;2.88;;
54157;SDS011;40065;49.894;10.358;2022-10-17T20:29:16;3.88;;;2.70;;
54157;SDS011;40065;49.894;10.358;2022-10-17T20:34:20;4.15;;;3.08;;
54157;SDS011;40065;49.894;10.358;2022-10-17T20:39:21;5.00;;;2.83;;
54157;SDS011;40065;49.894;10.358;2022-10-17T20:44:23;6.68;;;3.00;;
54157;SDS011;40065;49.894;10.358;2022-10-17T20:49:25;5.28;;;2.90;;
54157;SDS011;40065;49.894;10.358;2022-10-17T20:54:27;7.00;;;3.97;;
54157;SDS011;40065;49.894;10.358;2022-10-17T20:59:29;7.75;;;4.00;;
54157;SDS011;40065;49.894;10.358;2022-10-17T21:04:31;4.05;;;2.80;;
54157;SDS011;40065;49.894;10.358;2022-10-17T21:09:47;5.25;;;3.30;;
54157;SDS011;40065;49.894;10.358;2022-10-17T21:14:48;6.35;;;3.35;;
54157;SDS011;40065;49.894;10.358;2022-10-17T21:19:50;7.03;;;3.60;;
54157;SDS011;40065;49.894;10.358;2022-10-17T21:24:52;4.43;;;3.00;;
54157;SDS011;40065;49.894;10.358;2022-10-17T21:29:54;8.52;;;3.50;;
54157;SDS011;40065;49.894;10.358;2022-10-17T21:34:56;4.15;;;2.80;;
54157;SDS011;40065;49.894;10.358;2022-10-17T21:39:58;3.67;;;2.80;;
54157;SDS011;40065;49.894;10.358;2022-10-17T21:44:59;3.88;;;2.90;;
54157;SDS011;40065;49.894;10.358;2022-10-17T21:50:03;8.43;;;3.08;;
54157;SDS011;40065;49.894;10.358;2022-10-17T21:55:05;4.65;;;3.20;;
54157;SDS011;40065;49.894;10.358;2022-10-17T22:00:07;4.35;;;3.05;;
54157;SDS011;40065;49.894;10.358;2022-10-17T22:05:30;5.68;;;3.08;;
54157;SDS011;40065;49.894;10.358;2022-10-17T22:10:34;4.72;;;2.90;;
54157;SDS011;40065;49.894;10.358;2022-10-17T22:15:38;6.00;;;3.28;;
54157;SDS011;40065;49.894;10.358;2022-10-17T22:20:40;8.23;;;3.42;;
54157;SDS011;40065;49.894;10.358;2022-10-17T22:25:41;4.55;;;3.10;;
54157;SDS011;40065;49.894;10.358;2022-10-17T22:30:43;4.53;;;3.10;;
54157;SDS011;40065;49.894;10.358;2022-10-17T22:35:45;3.60;;;2.70;;
54157;SDS011;40065;49.894;10.358;2022-10-17T22:40:48;4.32;;;2.67;;
54157;SDS011;40065;49.894;10.358;2022-10-17T22:45:51;5.40;;;2.75;;
54157;SDS011;40065;49.894;10.358;2022-10-17T22:50:54;4.27;;;2.53;;
54157;SDS011;40065;49.894;10.358;2022-10-17T22:55:59;3.53;;;2.75;;
54157;SDS011;40065;49.894;10.358;2022-10-17T23:01:03;5.10;;;2.95;;
54157;SDS011;40065;49.894;10.358;2022-10-17T23:06:06;4.13;;;3.00;;
54157;SDS011;40065;49.894;10.358;2022-10-17T23:11:08;4.07;;;3.00;;
54157;SDS011;40065;49.894;10.358;2022-10-17T23:16:11;4.25;;;2.80;;
54157;SDS011;40065;49.894;10.358;2022-10-17T23:21:13;5.70;;;3.35;;
54157;SDS011;40065;49.894;10.358;2022-10-17T23:26:14;4.18;;;2.95;;
54157;SDS011;40065;49.894;10.358;2022-10-17T23:31:19;5.10;;;3.35;;
54157;SDS011;40065;49.894;10.358;2022-10-17T23:36:22;8.10;;;4.30;;
54157;SDS011;40065;49.894;10.358;2022-10-17T23:41:23;5.40;;;3.53;;
54157;SDS011;40065;49.894;10.358;2022-10-17T23:46:25;4.82;;;3.40;;
54157;SDS011;40065;49.894;10.358;2022-10-17T23:51:27;8.32;;;3.78;;
54157;SDS011;40065;49.894;10.358;2022-10-17T23:56:29;4.28;;;3.25;;
